< < Back
Terminal Aerodrome Forecast


Current Version              Previous Versions:   1  2  3  4  5  6  7  8  9  

Terminal Aerodrome Forecast

980
FTUS42 KGSP 242320
TAFGSP
TAF
KGSP 242320Z 2500/2524 36004KT P6SM SCT070 BKN250
     FM251400 05007KT P6SM FEW060 SCT250=

Latest METAR

908
SAUS70 KWBC 251900 RRK
MTRGSP
METAR KGSP 251853Z 35009KT 10SM FEW070 34/14 A3009 RMK AO2 SLP173
T03440144


USA.gov is the U.S. government's official web portal to all federal, state and local government web resources and services.